createdAt,value
2023-04-05T00:01:51.088Z,3.43
2023-04-05T00:04:23.730Z,3.50
2023-04-05T00:06:55.143Z,3.56
2023-04-05T00:09:27.191Z,3.63
2023-04-05T00:11:59.026Z,3.65
2023-04-05T00:14:30.877Z,3.76
2023-04-05T00:17:02.667Z,3.78
2023-04-05T00:19:36.569Z,3.65
2023-04-05T00:22:10.451Z,3.61
2023-04-05T00:24:43.466Z,3.53
2023-04-05T00:27:15.598Z,3.58
2023-04-05T00:29:47.502Z,3.69
2023-04-05T00:32:19.364Z,3.64
2023-04-05T00:34:51.960Z,3.70
2023-04-05T00:37:23.895Z,3.72
2023-04-05T00:39:57.440Z,3.62
2023-04-05T00:42:29.298Z,3.70
2023-04-05T00:45:01.252Z,3.86
2023-04-05T00:47:33.228Z,3.94
2023-04-05T00:50:07.076Z,3.97
2023-04-05T00:52:39.197Z,3.91
2023-04-05T00:55:13.102Z,3.74
2023-04-05T00:57:45.218Z,3.67
2023-04-05T01:00:18.130Z,3.59
2023-04-05T01:02:53.463Z,3.56
2023-04-05T01:05:36.566Z,3.55
2023-04-05T01:08:14.380Z,3.56
2023-04-05T01:10:49.574Z,3.63
2023-04-05T01:13:21.824Z,3.54
2023-04-05T01:15:53.859Z,3.45
2023-04-05T01:18:26.368Z,3.44
2023-04-05T01:21:06.101Z,3.51
2023-04-05T01:23:47.323Z,3.60
2023-04-05T01:26:54.072Z,3.63
2023-04-05T01:29:58.608Z,3.55
2023-04-05T01:32:48.584Z,3.33
2023-04-05T01:35:28.801Z,3.19
2023-04-05T01:38:04.753Z,3.09
2023-04-05T01:40:39.062Z,3.13
2023-04-05T01:43:17.123Z,3.07
2023-04-05T01:45:49.206Z,2.95
2023-04-05T01:48:21.013Z,2.77
2023-04-05T01:50:52.849Z,2.68
2023-04-05T01:53:24.788Z,2.66
2023-04-05T01:56:00.481Z,2.72
2023-04-05T01:58:32.343Z,2.78
2023-04-05T02:01:04.178Z,2.91
2023-04-05T02:03:36.810Z,2.89
2023-04-05T02:06:09.069Z,2.90
2023-04-05T02:08:43.194Z,2.76
2023-04-05T02:11:15.440Z,2.72
2023-04-05T02:13:47.330Z,2.76
2023-04-05T02:16:19.346Z,2.72
2023-04-05T02:18:51.214Z,2.61
2023-04-05T02:21:23.066Z,2.61
2023-04-05T02:23:55.284Z,2.62
2023-04-05T02:26:27.562Z,2.65
2023-04-05T02:28:59.339Z,2.56
2023-04-05T02:31:31.283Z,2.62
2023-04-05T02:34:03.508Z,2.64
2023-04-05T02:36:37.073Z,2.58
2023-04-05T02:39:08.908Z,2.47
2023-04-05T02:41:42.167Z,2.31
2023-04-05T02:44:15.584Z,2.26
2023-04-05T02:46:47.546Z,2.36
2023-04-05T02:49:20.362Z,2.47
2023-04-05T02:51:50.988Z,2.31
2023-04-05T02:54:23.702Z,2.30
2023-04-05T02:56:57.596Z,2.29
2023-04-05T02:59:28.540Z,2.24
2023-04-05T03:02:01.375Z,2.24
2023-04-05T03:04:34.343Z,2.22
2023-04-05T03:07:08.178Z,2.21
2023-04-05T03:09:44.470Z,2.20
2023-04-05T03:12:16.275Z,2.21
2023-04-05T03:14:48.519Z,2.13
2023-04-05T03:17:21.960Z,2.02
2023-04-05T03:20:02.414Z,2.01
2023-04-05T03:22:34.578Z,2.00
2023-04-05T03:25:08.088Z,1.85
2023-04-05T03:27:45.978Z,1.93
2023-04-05T03:30:21.520Z,1.91
2023-04-05T03:33:01.195Z,1.89
2023-04-05T03:35:40.504Z,1.88
2023-04-05T03:38:13.798Z,1.96
2023-04-05T03:40:52.277Z,1.87
2023-04-05T03:43:24.450Z,1.74
2023-04-05T03:45:56.965Z,1.54
2023-04-05T03:48:31.614Z,1.50
2023-04-05T03:51:03.419Z,1.61
2023-04-05T03:53:35.246Z,1.62
2023-04-05T03:56:07.919Z,1.57
2023-04-05T03:58:45.906Z,1.56
2023-04-05T04:01:18.394Z,1.60
2023-04-05T04:03:50.422Z,1.57
2023-04-05T04:06:23.059Z,1.57
2023-04-05T04:08:54.988Z,1.68
2023-04-05T04:11:27.373Z,1.78
2023-04-05T04:13:57.861Z,1.75
2023-04-05T04:16:41.272Z,1.88
2023-04-05T04:19:33.679Z,2.02
2023-04-05T04:22:21.051Z,2.11
2023-04-05T04:24:53.599Z,2.14
2023-04-05T04:27:48.208Z,2.14
2023-04-05T04:30:43.301Z,2.19
2023-04-05T04:33:29.392Z,2.25
2023-04-05T04:36:35.110Z,2.30
2023-04-05T04:39:27.328Z,2.33
2023-04-05T04:42:20.058Z,2.36
2023-04-05T04:45:13.263Z,2.40
2023-04-05T04:48:09.948Z,2.31
2023-04-05T04:50:57.325Z,2.07
2023-04-05T04:53:29.234Z,2.05
2023-04-05T04:56:01.816Z,1.92
2023-04-05T04:58:32.210Z,1.90
2023-04-05T05:01:11.679Z,1.76
2023-04-05T05:03:43.592Z,1.78
2023-04-05T05:06:19.514Z,1.77
2023-04-05T05:08:51.468Z,1.77
2023-04-05T05:11:23.248Z,1.81
2023-04-05T05:13:55.351Z,1.72
2023-04-05T05:16:29.219Z,1.74
2023-04-05T05:19:01.845Z,1.73
2023-04-05T05:21:43.168Z,1.90
2023-04-05T05:24:15.043Z,1.97
2023-04-05T05:26:46.903Z,1.90
2023-04-05T05:29:19.857Z,1.78
2023-04-05T05:31:52.120Z,1.79
2023-04-05T05:34:25.755Z,1.91
2023-04-05T05:37:11.240Z,2.06
2023-04-05T05:40:10.001Z,2.06
2023-04-05T05:42:43.027Z,2.08
2023-04-05T05:45:15.404Z,2.16
2023-04-05T05:47:47.376Z,2.27
2023-04-05T05:50:20.600Z,2.27
2023-04-05T05:52:53.248Z,2.36
2023-04-05T05:55:25.383Z,2.41
2023-04-05T05:57:57.363Z,2.39
2023-04-05T06:00:29.483Z,2.32
2023-04-05T06:03:01.631Z,2.25
2023-04-05T06:05:34.026Z,2.33
2023-04-05T06:08:06.369Z,2.41
2023-04-05T06:10:40.024Z,2.44
2023-04-05T06:13:12.441Z,2.36
2023-04-05T06:15:44.779Z,2.35
2023-04-05T06:18:16.786Z,2.36
2023-04-05T06:20:48.965Z,2.42
2023-04-05T06:23:20.918Z,2.46
2023-04-05T06:25:53.074Z,2.53
2023-04-05T06:28:25.288Z,2.60
2023-04-05T06:30:59.917Z,2.63
2023-04-05T06:33:31.868Z,2.60
2023-04-05T06:36:03.797Z,2.68
2023-04-05T06:38:36.559Z,2.68
2023-04-05T06:41:07.057Z,2.65
2023-04-05T06:43:39.345Z,2.75
2023-04-05T06:46:12.691Z,2.76
2023-04-05T06:48:45.034Z,2.76
2023-04-05T06:51:17.197Z,2.75
2023-04-05T06:53:49.259Z,2.62
2023-04-05T06:56:21.711Z,2.65
2023-04-05T06:58:55.672Z,2.70
2023-04-05T07:01:27.823Z,2.80
2023-04-05T07:04:00.822Z,2.75
2023-04-05T07:06:34.545Z,2.76
2023-04-05T07:09:06.647Z,2.78
2023-04-05T07:11:39.943Z,2.87
2023-04-05T07:14:11.979Z,2.94
2023-04-05T07:16:43.930Z,3.11
2023-04-05T07:19:15.729Z,3.23
2023-04-05T07:21:47.760Z,3.28
2023-04-05T07:24:19.722Z,3.37
2023-04-05T07:26:51.783Z,3.41
2023-04-05T07:29:24.008Z,3.48
2023-04-05T07:31:56.339Z,3.46
2023-04-05T07:34:28.568Z,3.50
2023-04-05T07:37:00.551Z,3.58
2023-04-05T07:39:32.671Z,3.70
2023-04-05T07:42:04.782Z,3.83
2023-04-05T07:44:36.725Z,3.81
2023-04-05T07:47:12.208Z,3.86
2023-04-05T07:49:44.333Z,4.05
2023-04-05T07:52:16.299Z,4.12
2023-04-05T07:54:48.351Z,4.24
2023-04-05T07:57:20.719Z,4.40
2023-04-05T07:59:55.083Z,4.42
2023-04-05T08:02:27.245Z,4.44
2023-04-05T08:04:59.361Z,4.35
2023-04-05T08:07:31.538Z,4.53
2023-04-05T08:10:03.752Z,4.55
2023-04-05T08:12:38.808Z,4.61
2023-04-05T08:15:12.409Z,4.64
2023-04-05T08:17:44.517Z,4.72
2023-04-05T08:20:16.898Z,4.77
2023-04-05T08:22:50.004Z,4.82
2023-04-05T08:25:22.653Z,4.87
2023-04-05T08:27:54.556Z,4.74
2023-04-05T08:30:26.983Z,4.71
2023-04-05T08:32:59.080Z,4.65
2023-04-05T08:35:31.064Z,4.79
2023-04-05T08:38:03.007Z,4.89
2023-04-05T08:40:41.640Z,5.02
2023-04-05T08:43:20.645Z,4.81
2023-04-05T08:45:54.156Z,4.87
2023-04-05T08:48:28.885Z,5.05
2023-04-05T08:51:01.195Z,5.21
2023-04-05T08:53:34.404Z,5.36
2023-04-05T08:56:08.087Z,5.37
2023-04-05T08:58:41.417Z,5.49
2023-04-05T09:01:13.537Z,5.67
2023-04-05T09:03:46.830Z,5.81
2023-04-05T09:06:20.431Z,5.90
2023-04-05T09:08:53.921Z,6.03
2023-04-05T09:11:26.548Z,6.06
2023-04-05T09:13:58.449Z,6.11
2023-04-05T09:16:31.280Z,5.87
2023-04-05T09:19:03.385Z,5.76
2023-04-05T09:22:04.094Z,5.77
2023-04-05T09:24:41.531Z,5.91
2023-04-05T09:27:17.958Z,5.89
2023-04-05T09:29:53.486Z,5.81
2023-04-05T09:32:29.746Z,5.75
2023-04-05T09:35:04.581Z,5.67
2023-04-05T09:37:52.783Z,5.69
2023-04-05T09:40:25.697Z,5.75
2023-04-05T09:42:57.805Z,5.73
2023-04-05T09:45:32.271Z,5.70
2023-04-05T09:48:04.313Z,5.75
2023-04-05T09:50:37.131Z,5.82
2023-04-05T09:53:16.233Z,5.73
2023-04-05T09:55:48.579Z,5.69
2023-04-05T09:58:23.444Z,5.87
2023-04-05T10:01:06.535Z,6.17
2023-04-05T10:03:51.127Z,6.38
2023-04-05T10:06:23.433Z,6.58
2023-04-05T10:08:55.553Z,6.46
2023-04-05T10:11:28.968Z,6.24
2023-04-05T10:14:04.095Z,6.11
2023-04-05T10:16:39.871Z,5.99
2023-04-05T10:19:18.388Z,5.89
2023-04-05T10:21:52.409Z,6.01
2023-04-05T10:24:36.566Z,6.01
2023-04-05T10:27:17.804Z,5.89
2023-04-05T10:29:59.390Z,5.85
2023-04-05T10:32:36.195Z,5.95
2023-04-05T10:35:19.108Z,6.03
2023-04-05T10:37:54.958Z,6.02
2023-04-05T10:40:30.558Z,5.93
2023-04-05T10:43:04.513Z,5.92
2023-04-05T10:45:38.004Z,5.87
2023-04-05T10:48:25.073Z,5.90
2023-04-05T10:50:57.702Z,5.84
2023-04-05T10:53:31.623Z,5.88
2023-04-05T10:56:04.207Z,5.96
2023-04-05T10:58:39.638Z,5.85
2023-04-05T11:01:17.381Z,5.85
2023-04-05T11:03:51.748Z,5.81
2023-04-05T11:06:26.560Z,5.82
2023-04-05T11:09:11.560Z,5.89
2023-04-05T11:11:45.089Z,6.02
2023-04-05T11:14:25.692Z,5.97
2023-04-05T11:16:59.672Z,5.91
2023-04-05T11:19:52.239Z,5.95
2023-04-05T11:22:31.735Z,6.14
2023-04-05T11:25:04.487Z,6.10
2023-04-05T11:27:37.276Z,6.07
2023-04-05T11:30:11.164Z,6.12
2023-04-05T11:32:44.875Z,6.28
2023-04-05T11:35:22.968Z,6.30
2023-04-05T11:38:09.459Z,6.24
2023-04-05T11:40:43.579Z,6.29
2023-04-05T11:43:16.514Z,6.39
2023-04-05T11:45:49.340Z,6.43
2023-04-05T11:48:23.598Z,6.60
2023-04-05T11:50:57.881Z,6.83
2023-04-05T11:53:30.198Z,7.21
2023-04-05T11:56:10.901Z,7.68
2023-04-05T11:58:42.990Z,7.89
2023-04-05T12:01:15.048Z,8.03
2023-04-05T12:03:53.866Z,8.35
2023-04-05T12:06:26.987Z,8.45
2023-04-05T12:08:58.925Z,8.52
2023-04-05T12:11:32.293Z,8.81
2023-04-05T12:14:04.680Z,9.10
2023-04-05T12:16:36.948Z,9.08
2023-04-05T12:19:09.006Z,9.16
2023-04-05T12:21:41.421Z,9.12
2023-04-05T12:24:14.018Z,9.03
2023-04-05T12:26:46.015Z,8.87
2023-04-05T12:29:24.625Z,8.72
2023-04-05T12:31:58.168Z,8.43
2023-04-05T12:34:30.055Z,8.10
2023-04-05T12:37:03.482Z,8.24
2023-04-05T12:39:35.338Z,8.32
2023-04-05T12:42:07.362Z,8.40
2023-04-05T12:44:39.496Z,8.34
2023-04-05T12:47:12.576Z,8.26
2023-04-05T12:49:45.140Z,8.22
2023-04-05T12:52:21.992Z,8.12
2023-04-05T12:54:57.705Z,8.15
2023-04-05T12:57:33.922Z,8.35
2023-04-05T13:00:07.090Z,8.54
2023-04-05T13:02:39.300Z,8.63
2023-04-05T13:05:12.233Z,8.64
2023-04-05T13:07:42.519Z,8.51
2023-04-05T13:10:14.679Z,8.42
2023-04-05T13:12:46.666Z,8.21
2023-04-05T13:15:19.810Z,8.34
2023-04-05T13:17:53.334Z,8.57
2023-04-05T13:20:25.594Z,8.70
2023-04-05T13:22:57.562Z,8.85
2023-04-05T13:25:29.659Z,9.12
2023-04-05T13:28:01.600Z,9.12
2023-04-05T13:30:34.186Z,9.16
2023-04-05T13:33:06.365Z,9.09
2023-04-05T13:35:38.257Z,9.14
2023-04-05T13:38:10.418Z,9.33
2023-04-05T13:40:42.683Z,9.41
2023-04-05T13:43:15.247Z,9.54
2023-04-05T13:45:47.141Z,9.83
2023-04-05T13:48:19.097Z,9.98
2023-04-05T13:50:51.038Z,10.20
2023-04-05T13:53:22.862Z,10.37
2023-04-05T13:55:54.859Z,10.18
2023-04-05T13:58:26.754Z,9.71
2023-04-05T14:00:58.656Z,9.82
2023-04-05T14:03:30.858Z,10.06
2023-04-05T14:06:04.948Z,10.03
2023-04-05T14:08:36.881Z,10.07
2023-04-05T14:11:08.981Z,10.19
2023-04-05T14:13:41.161Z,10.05
2023-04-05T14:16:13.127Z,9.74
2023-04-05T14:18:45.445Z,9.40
2023-04-05T14:21:17.461Z,9.32
2023-04-05T14:23:52.957Z,9.73
2023-04-05T14:26:26.217Z,10.03
2023-04-05T14:28:58.141Z,10.22
2023-04-05T14:31:30.403Z,10.35
2023-04-05T14:34:03.100Z,10.39
2023-04-05T14:36:35.227Z,10.56
2023-04-05T14:39:07.148Z,10.64
2023-04-05T14:41:39.631Z,10.55
2023-04-05T14:44:11.588Z,10.44
2023-04-05T14:46:43.420Z,10.44
2023-04-05T14:49:15.360Z,10.41
2023-04-05T14:51:48.060Z,10.12
2023-04-05T14:54:18.451Z,9.73
2023-04-05T14:56:50.613Z,9.36
2023-04-05T14:59:22.795Z,9.46
2023-04-05T15:01:54.744Z,9.41
2023-04-05T15:04:26.992Z,9.44
2023-04-05T15:06:58.818Z,9.57
2023-04-05T15:09:30.769Z,9.50
2023-04-05T15:12:02.865Z,9.42
2023-04-05T15:14:34.881Z,9.32
2023-04-05T15:17:06.956Z,9.24
2023-04-05T15:19:38.993Z,9.28
2023-04-05T15:22:10.984Z,9.60
2023-04-05T15:24:43.613Z,9.73
2023-04-05T15:27:15.539Z,9.66
2023-04-05T15:29:47.440Z,9.78
2023-04-05T15:32:19.248Z,9.85
2023-04-05T15:34:51.149Z,9.72
2023-04-05T15:37:23.063Z,9.62
2023-04-05T15:39:55.001Z,9.81
2023-04-05T15:42:26.968Z,9.92
2023-04-05T15:44:58.932Z,9.98
2023-04-05T15:47:31.248Z,10.01
2023-04-05T15:50:03.317Z,10.13
2023-04-05T15:52:46.855Z,10.18
2023-04-05T15:55:27.422Z,10.36
2023-04-05T15:58:05.803Z,10.61
2023-04-05T16:00:43.433Z,10.74
2023-04-05T16:03:17.174Z,10.60
2023-04-05T16:05:49.129Z,10.37
2023-04-05T16:08:20.985Z,10.29
2023-04-05T16:10:53.033Z,9.92
2023-04-05T16:13:25.097Z,9.71
2023-04-05T16:20:16.860Z,9.47
2023-04-05T16:22:52.170Z,9.26
2023-04-05T16:25:26.058Z,9.12
2023-04-05T16:27:58.387Z,9.04
2023-04-05T16:30:30.458Z,8.99
2023-04-05T16:33:03.233Z,8.81
2023-04-05T16:35:35.953Z,8.77
2023-04-05T16:38:08.229Z,8.72
2023-04-05T16:40:40.109Z,8.65
2023-04-05T16:43:12.183Z,8.53
2023-04-05T16:45:44.983Z,8.49
2023-04-05T16:48:15.898Z,8.43
2023-04-05T16:50:48.202Z,8.33
2023-04-05T16:53:20.322Z,8.30
2023-04-05T16:55:52.578Z,8.25
2023-04-05T16:58:25.076Z,8.09
2023-04-05T17:00:58.893Z,8.07
2023-04-05T17:03:31.237Z,8.00
2023-04-05T17:06:03.387Z,7.95
2023-04-05T17:08:35.684Z,7.74
2023-04-05T17:11:07.926Z,7.76
2023-04-05T17:13:42.223Z,7.70
2023-04-05T17:16:14.698Z,7.65
2023-04-05T17:18:46.927Z,7.62
2023-04-05T17:21:20.023Z,7.63
2023-04-05T17:23:52.282Z,7.62
2023-04-05T17:26:24.517Z,7.56
2023-04-05T17:28:56.765Z,7.50
2023-04-05T17:31:29.134Z,7.41
2023-04-05T17:34:01.135Z,7.34
2023-04-05T17:36:34.330Z,7.27
2023-04-05T17:39:06.669Z,7.18
2023-04-05T17:41:38.678Z,7.12
2023-04-05T17:44:10.854Z,6.96
2023-04-05T17:46:51.115Z,6.88
2023-04-05T17:49:29.915Z,6.88
2023-04-05T17:52:01.812Z,6.85
2023-04-05T17:54:36.913Z,6.81
2023-04-05T17:57:14.953Z,6.76
2023-04-05T17:59:47.182Z,6.74
2023-04-05T18:02:19.025Z,6.65
2023-04-05T18:04:52.628Z,6.55
2023-04-05T18:07:24.454Z,6.51
2023-04-05T18:09:56.601Z,6.51
2023-04-05T18:12:28.621Z,6.40
2023-04-05T18:15:02.366Z,6.40
2023-04-05T18:17:34.585Z,6.38
2023-04-05T18:20:08.793Z,6.40
2023-04-05T18:22:41.086Z,6.37
2023-04-05T18:25:13.372Z,6.26
2023-04-05T18:27:45.551Z,6.19
2023-04-05T18:30:18.109Z,6.12
2023-04-05T18:32:50.327Z,6.04
2023-04-05T18:35:23.020Z,5.98
2023-04-05T18:37:55.311Z,5.95
2023-04-05T18:40:27.678Z,5.97
2023-04-05T18:42:59.741Z,5.98
2023-04-05T18:45:32.137Z,5.97
2023-04-05T18:48:04.750Z,5.98
2023-04-05T18:50:37.616Z,5.97
2023-04-05T18:53:10.041Z,5.94
2023-04-05T18:55:41.997Z,5.95
2023-04-05T18:58:14.222Z,5.79
2023-04-05T19:00:46.081Z,5.79
2023-04-05T19:03:18.844Z,5.73
2023-04-05T19:05:53.878Z,5.67
2023-04-05T19:08:26.016Z,5.48
2023-04-05T19:10:57.897Z,5.49
2023-04-05T19:13:29.995Z,5.48
2023-04-05T19:16:03.669Z,5.48
2023-04-05T19:18:36.390Z,5.47
2023-04-05T19:21:08.743Z,5.47
2023-04-05T19:23:40.687Z,5.48
2023-04-05T19:26:12.993Z,5.48
2023-04-05T19:28:44.999Z,5.44
2023-04-05T19:31:17.023Z,5.43
2023-04-05T19:33:50.325Z,5.37
2023-04-05T19:36:22.533Z,5.26
2023-04-05T19:38:54.638Z,5.22
2023-04-05T19:41:32.372Z,5.21
2023-04-05T19:44:10.369Z,5.18
2023-04-05T19:46:43.660Z,5.16
2023-04-05T19:49:32.467Z,5.15
2023-04-05T19:52:07.248Z,5.09
2023-04-05T19:54:40.132Z,5.09
2023-04-05T19:57:19.264Z,5.04
2023-04-05T19:59:53.077Z,4.98
2023-04-05T20:02:36.026Z,4.93
2023-04-05T20:05:32.029Z,4.87
2023-04-05T20:08:04.307Z,4.90
2023-04-05T20:10:47.562Z,4.90
2023-04-05T20:13:20.368Z,4.81
2023-04-05T20:15:50.953Z,4.85
2023-04-05T20:18:25.698Z,4.81
2023-04-05T20:21:00.197Z,4.80
2023-04-05T20:23:34.592Z,4.80
2023-04-05T20:26:08.930Z,4.70
2023-04-05T20:28:43.067Z,4.63
2023-04-05T20:31:22.760Z,4.64
2023-04-05T20:34:03.668Z,4.63
2023-04-05T20:36:37.588Z,4.61
2023-04-05T20:39:10.009Z,4.48
2023-04-05T20:41:42.951Z,4.24
2023-04-05T20:44:15.023Z,4.23
2023-04-05T20:46:47.628Z,4.27
2023-04-05T20:49:20.136Z,4.26
2023-04-05T20:51:55.805Z,4.16
2023-04-05T20:54:27.944Z,4.23
2023-04-05T20:57:00.238Z,4.28
2023-04-05T20:59:32.240Z,4.27
2023-04-05T21:02:04.706Z,4.36
2023-04-05T21:04:36.703Z,4.36
2023-04-05T21:07:08.645Z,4.38
2023-04-05T21:09:40.373Z,4.38
2023-04-05T21:12:12.407Z,4.31
2023-04-05T21:14:44.352Z,4.34
2023-04-05T21:17:16.110Z,4.33
2023-04-05T21:19:48.139Z,4.34
2023-04-05T21:22:20.050Z,4.32
2023-04-05T21:24:51.944Z,4.19
2023-04-05T21:27:24.588Z,4.04
2023-04-05T21:29:56.374Z,3.92
2023-04-05T21:32:28.358Z,3.99
2023-04-05T21:35:00.172Z,3.95
2023-04-05T21:37:32.084Z,3.98
2023-04-05T21:40:04.358Z,4.02
2023-04-05T21:42:36.481Z,4.05
2023-04-05T21:45:10.393Z,4.05
2023-04-05T21:47:42.312Z,3.96
2023-04-05T21:50:14.250Z,3.96
2023-04-05T21:52:46.434Z,3.87
2023-04-05T21:55:18.359Z,3.81
2023-04-05T21:57:50.459Z,3.82
2023-04-05T22:00:23.525Z,3.71
2023-04-05T22:02:55.461Z,3.75
2023-04-05T22:05:37.148Z,3.73
2023-04-05T22:08:08.836Z,3.67
2023-04-05T22:10:41.906Z,3.70
2023-04-05T22:13:13.703Z,3.58
2023-04-05T22:15:45.826Z,3.43
2023-04-05T22:18:17.873Z,3.29
2023-04-05T22:20:49.714Z,3.40
2023-04-05T22:23:21.881Z,3.47
2023-04-05T22:25:53.911Z,3.57
2023-04-05T22:28:25.963Z,3.61
2023-04-05T22:30:57.845Z,3.63
2023-04-05T22:33:29.829Z,3.66
2023-04-05T22:36:03.155Z,3.62
2023-04-05T22:38:34.973Z,3.52
2023-04-05T22:41:07.074Z,3.50
2023-04-05T22:43:38.834Z,3.44
2023-04-05T22:46:10.771Z,3.40
2023-04-05T22:48:42.962Z,3.42
2023-04-05T22:51:14.715Z,3.39
2023-04-05T22:53:46.840Z,3.24
2023-04-05T22:56:21.370Z,3.06
2023-04-05T22:58:53.341Z,3.02
2023-04-05T23:01:25.681Z,2.88
2023-04-05T23:03:57.476Z,2.83
2023-04-05T23:06:29.251Z,2.89
2023-04-05T23:09:03.690Z,2.85
2023-04-05T23:11:35.602Z,2.88
2023-04-05T23:14:07.647Z,2.99
2023-04-05T23:16:40.166Z,2.89
2023-04-05T23:19:11.929Z,2.86
2023-04-05T23:21:43.859Z,2.90
2023-04-05T23:24:15.722Z,2.89
2023-04-05T23:26:47.745Z,2.85
2023-04-05T23:29:19.611Z,2.73
2023-04-05T23:31:53.100Z,2.68
2023-04-05T23:34:25.012Z,2.69
2023-04-05T23:36:56.840Z,2.65
2023-04-05T23:39:28.986Z,2.59
2023-04-05T23:42:01.716Z,2.56
2023-04-05T23:44:31.993Z,2.57
2023-04-05T23:47:05.154Z,2.54
2023-04-05T23:49:37.210Z,2.44
2023-04-05T23:52:09.054Z,2.38
2023-04-05T23:54:40.926Z,2.42
2023-04-05T23:57:12.752Z,2.45
2023-04-05T23:59:44.670Z,2.41
